sensor_id;sensor_type;location;lat;lon;timestamp;pressure;altitude;pressure_sealevel;temperature;humidity
113;BME280;45999;48.808;9.182;2023-05-23T00:01:50;97890.03;;;17.72;100.00
113;BME280;45999;48.808;9.182;2023-05-23T00:04:18;97884.38;;;17.69;100.00
113;BME280;45999;48.808;9.182;2023-05-23T00:06:45;97887.06;;;17.79;100.00
113;BME280;45999;48.808;9.182;2023-05-23T00:09:14;97888.41;;;17.71;100.00
113;BME280;45999;48.808;9.182;2023-05-23T00:11:41;97893.78;;;17.61;100.00
113;BME280;45999;48.808;9.182;2023-05-23T00:14:13;97895.41;;;17.67;100.00
113;BME280;45999;48.808;9.182;2023-05-23T00:16:44;97894.06;;;17.70;100.00
113;BME280;45999;48.808;9.182;2023-05-23T00:19:14;97891.09;;;17.66;100.00
113;BME280;45999;48.808;9.182;2023-05-23T00:21:45;97894.56;;;17.67;100.00
113;BME280;45999;48.808;9.182;2023-05-23T00:24:13;97898.34;;;17.61;100.00
113;BME280;45999;48.808;9.182;2023-05-23T00:26:43;97889.47;;;17.55;100.00
113;BME280;45999;48.808;9.182;2023-05-23T00:29:10;97892.69;;;17.57;100.00
113;BME280;45999;48.808;9.182;2023-05-23T00:31:40;97889.19;;;17.57;100.00
113;BME280;45999;48.808;9.182;2023-05-23T00:34:06;97898.06;;;17.52;100.00
113;BME280;45999;48.808;9.182;2023-05-23T00:36:32;97903.16;;;17.54;100.00
113;BME280;45999;48.808;9.182;2023-05-23T00:39:02;97905.59;;;17.60;100.00
113;BME280;45999;48.808;9.182;2023-05-23T00:41:29;97899.69;;;17.53;100.00
113;BME280;45999;48.808;9.182;2023-05-23T00:43:58;97903.16;;;17.54;100.00
113;BME280;45999;48.808;9.182;2023-05-23T00:46:25;97902.63;;;17.52;100.00
113;BME280;45999;48.808;9.182;2023-05-23T00:48:52;97900.22;;;17.60;100.00
113;BME280;45999;48.808;9.182;2023-05-23T00:51:20;97906.16;;;17.57;100.00
113;BME280;45999;48.808;9.182;2023-05-23T00:53:47;97905.84;;;17.59;100.00
113;BME280;45999;48.808;9.182;2023-05-23T00:56:14;97910.72;;;17.62;100.00
113;BME280;45999;48.808;9.182;2023-05-23T00:58:40;97919.28;;;17.59;100.00
113;BME280;45999;48.808;9.182;2023-05-23T01:01:07;97924.97;;;17.62;100.00
113;BME280;45999;48.808;9.182;2023-05-23T01:03:33;97921.47;;;17.57;100.00
113;BME280;45999;48.808;9.182;2023-05-23T01:06:00;97921.19;;;17.53;100.00
113;BME280;45999;48.808;9.182;2023-05-23T01:08:28;97919.59;;;17.57;100.00
113;BME280;45999;48.808;9.182;2023-05-23T01:10:58;97923.31;;;17.51;100.00
113;BME280;45999;48.808;9.182;2023-05-23T01:13:39;97910.97;;;17.55;100.00
113;BME280;45999;48.808;9.182;2023-05-23T01:16:12;97920.09;;;17.54;100.00
113;BME280;45999;48.808;9.182;2023-05-23T01:18:49;97913.38;;;17.52;100.00
113;BME280;45999;48.808;9.182;2023-05-23T01:21:22;97919.00;;;17.45;100.00
113;BME280;45999;48.808;9.182;2023-05-23T01:29:29;97924.41;;;17.50;100.00
113;BME280;45999;48.808;9.182;2023-05-23T01:31:57;97917.41;;;17.39;100.00
113;BME280;45999;48.808;9.182;2023-05-23T01:34:25;97917.41;;;17.39;100.00
113;BME280;45999;48.808;9.182;2023-05-23T01:36:54;97918.41;;;17.38;100.00
113;BME280;45999;48.808;9.182;2023-05-23T01:39:21;97920.31;;;17.33;100.00
113;BME280;45999;48.808;9.182;2023-05-23T01:41:51;97920.03;;;17.34;100.00
113;BME280;45999;48.808;9.182;2023-05-23T01:44:19;97916.03;;;17.37;100.00
113;BME280;45999;48.808;9.182;2023-05-23T01:46:46;97916.28;;;17.35;100.00
113;BME280;45999;48.808;9.182;2023-05-23T01:49:14;97921.34;;;17.27;100.00
113;BME280;45999;48.808;9.182;2023-05-23T01:51:42;97921.66;;;17.30;100.00
113;BME280;45999;48.808;9.182;2023-05-23T01:54:09;97924.84;;;17.27;100.00
113;BME280;45999;48.808;9.182;2023-05-23T01:56:35;97921.34;;;17.27;100.00
113;BME280;45999;48.808;9.182;2023-05-23T01:59:02;97923.50;;;17.25;100.00
113;BME280;45999;48.808;9.182;2023-05-23T02:01:29;97927.53;;;17.22;100.00
113;BME280;45999;48.808;9.182;2023-05-23T02:03:55;97928.34;;;17.23;100.00
113;BME280;45999;48.808;9.182;2023-05-23T02:06:22;97926.97;;;17.20;100.00
113;BME280;45999;48.808;9.182;2023-05-23T02:08:48;97926.16;;;17.15;100.00
113;BME280;45999;48.808;9.182;2023-05-23T02:11:15;97925.34;;;17.19;100.00
113;BME280;45999;48.808;9.182;2023-05-23T02:13:41;97927.75;;;17.11;100.00
113;BME280;45999;48.808;9.182;2023-05-23T02:16:07;97923.47;;;17.10;100.00
113;BME280;45999;48.808;9.182;2023-05-23T02:18:34;97912.47;;;17.11;100.00
113;BME280;45999;48.808;9.182;2023-05-23T02:21:03;97926.94;;;17.15;100.00
113;BME280;45999;48.808;9.182;2023-05-23T02:23:29;97927.25;;;17.14;100.00
113;BME280;45999;48.808;9.182;2023-05-23T02:25:56;97936.34;;;17.13;100.00
113;BME280;45999;48.808;9.182;2023-05-23T02:28:22;97928.56;;;17.11;100.00
113;BME280;45999;48.808;9.182;2023-05-23T02:30:49;97936.09;;;17.14;100.00
113;BME280;45999;48.808;9.182;2023-05-23T02:33:15;97932.31;;;17.10;100.00
113;BME280;45999;48.808;9.182;2023-05-23T02:35:42;97932.56;;;17.09;100.00
113;BME280;45999;48.808;9.182;2023-05-23T02:38:08;97929.63;;;17.10;100.00
113;BME280;45999;48.808;9.182;2023-05-23T02:40:34;97935.56;;;17.12;100.00
113;BME280;45999;48.808;9.182;2023-05-23T02:43:01;97942.53;;;17.13;100.00
113;BME280;45999;48.808;9.182;2023-05-23T02:45:27;97937.16;;;17.13;100.00
113;BME280;45999;48.808;9.182;2023-05-23T02:47:53;97945.50;;;17.17;100.00
113;BME280;45999;48.808;9.182;2023-05-23T02:50:20;97947.94;;;17.18;100.00
113;BME280;45999;48.808;9.182;2023-05-23T02:52:46;97942.28;;;17.20;100.00
113;BME280;45999;48.808;9.182;2023-05-23T02:55:12;97943.91;;;17.21;100.00
113;BME280;45999;48.808;9.182;2023-05-23T02:57:39;97942.56;;;17.18;100.00
113;BME280;45999;48.808;9.182;2023-05-23T03:00:06;97949.78;;;17.13;100.00
113;BME280;45999;48.808;9.182;2023-05-23T03:02:33;97948.44;;;17.10;100.00
113;BME280;45999;48.808;9.182;2023-05-23T03:05:00;97944.94;;;17.10;100.00
113;BME280;45999;48.808;9.182;2023-05-23T03:07:27;97947.66;;;17.15;100.00
113;BME280;45999;48.808;9.182;2023-05-23T03:09:54;97952.22;;;17.14;100.00
113;BME280;45999;48.808;9.182;2023-05-23T03:12:21;97956.00;;;17.23;100.00
113;BME280;45999;48.808;9.182;2023-05-23T03:14:47;97958.13;;;17.16;100.00
113;BME280;45999;48.808;9.182;2023-05-23T03:17:13;97961.88;;;17.20;100.00
113;BME280;45999;48.808;9.182;2023-05-23T03:19:40;97963.53;;;17.26;100.00
113;BME280;45999;48.808;9.182;2023-05-23T03:22:06;97961.88;;;17.15;100.00
113;BME280;45999;48.808;9.182;2023-05-23T03:24:32;97961.84;;;17.10;100.00
113;BME280;45999;48.808;9.182;2023-05-23T03:26:59;97963.22;;;17.13;100.00
113;BME280;45999;48.808;9.182;2023-05-23T03:29:27;97965.38;;;17.16;100.00
113;BME280;45999;48.808;9.182;2023-05-23T03:31:53;97967.81;;;17.17;100.00
113;BME280;45999;48.808;9.182;2023-05-23T03:34:19;97970.50;;;17.22;100.00
113;BME280;45999;48.808;9.182;2023-05-23T03:36:48;97965.13;;;17.17;100.00
113;BME280;45999;48.808;9.182;2023-05-23T03:39:15;97963.75;;;17.10;100.00
113;BME280;45999;48.808;9.182;2023-05-23T03:41:41;97968.56;;;17.13;100.00
113;BME280;45999;48.808;9.182;2023-05-23T03:44:07;97968.31;;;17.14;100.00
113;BME280;45999;48.808;9.182;2023-05-23T03:46:34;97975.06;;;17.22;100.00
113;BME280;45999;48.808;9.182;2023-05-23T03:49:00;97967.53;;;17.14;100.00
113;BME280;45999;48.808;9.182;2023-05-23T03:51:27;97963.22;;;17.18;100.00
113;BME280;45999;48.808;9.182;2023-05-23T03:53:54;97964.03;;;17.13;100.00
113;BME280;45999;48.808;9.182;2023-05-23T03:56:20;97958.63;;;17.08;100.00
113;BME280;45999;48.808;9.182;2023-05-23T03:58:47;97952.47;;;17.13;100.00
113;BME280;45999;48.808;9.182;2023-05-23T04:01:13;97960.50;;;17.08;100.00
113;BME280;45999;48.808;9.182;2023-05-23T04:03:39;97961.84;;;17.10;100.00
113;BME280;45999;48.808;9.182;2023-05-23T04:06:06;97961.84;;;17.10;100.00
113;BME280;45999;48.808;9.182;2023-05-23T04:08:32;97965.09;;;17.07;100.00
113;BME280;45999;48.808;9.182;2023-05-23T04:11:00;97959.19;;;17.15;100.00
113;BME280;45999;48.808;9.182;2023-05-23T04:13:27;97970.47;;;17.12;100.00
113;BME280;45999;48.808;9.182;2023-05-23T04:15:55;97968.28;;;17.04;100.00
113;BME280;45999;48.808;9.182;2023-05-23T04:18:21;97973.88;;;16.98;100.00
113;BME280;45999;48.808;9.182;2023-05-23T04:20:48;97968.03;;;17.06;100.00
113;BME280;45999;48.808;9.182;2023-05-23T04:23:14;97967.78;;;17.07;100.00
113;BME280;45999;48.808;9.182;2023-05-23T04:25:41;97974.47;;;17.05;100.00
113;BME280;45999;48.808;9.182;2023-05-23T04:28:07;97980.88;;;16.99;100.00
113;BME280;45999;48.808;9.182;2023-05-23T04:30:35;97974.72;;;17.03;100.00
113;BME280;45999;48.808;9.182;2023-05-23T04:33:01;97973.94;;;17.13;100.00
113;BME280;45999;48.808;9.182;2023-05-23T04:35:27;97980.66;;;17.10;100.00
113;BME280;45999;48.808;9.182;2023-05-23T04:37:54;97973.66;;;17.04;100.00
113;BME280;45999;48.808;9.182;2023-05-23T04:40:22;97978.44;;;16.97;100.00
113;BME280;45999;48.808;9.182;2023-05-23T04:42:49;97989.25;;;17.02;100.00
113;BME280;45999;48.808;9.182;2023-05-23T04:45:18;97990.88;;;17.08;100.00
113;BME280;45999;48.808;9.182;2023-05-23T04:47:45;97994.88;;;17.01;100.00
113;BME280;45999;48.808;9.182;2023-05-23T04:50:12;97995.69;;;17.06;100.00
113;BME280;45999;48.808;9.182;2023-05-23T04:52:39;98001.03;;;17.01;100.00
113;BME280;45999;48.808;9.182;2023-05-23T04:55:06;97998.66;;;17.05;100.00
113;BME280;45999;48.808;9.182;2023-05-23T04:57:33;98005.88;;;17.04;100.00
113;BME280;45999;48.808;9.182;2023-05-23T04:59:59;98004.03;;;17.05;100.00
113;BME280;45999;48.808;9.182;2023-05-23T05:02:26;98000.53;;;17.09;100.00
113;BME280;45999;48.808;9.182;2023-05-23T05:04:52;98008.31;;;17.06;100.00
113;BME280;45999;48.808;9.182;2023-05-23T05:07:19;98007.81;;;17.14;100.00
113;BME280;45999;48.808;9.182;2023-05-23T05:09:45;98005.41;;;17.12;100.00
113;BME280;45999;48.808;9.182;2023-05-23T05:12:11;98008.63;;;17.14;100.00
113;BME280;45999;48.808;9.182;2023-05-23T05:14:38;98014.00;;;17.14;100.00
113;BME280;45999;48.808;9.182;2023-05-23T05:17:04;98012.91;;;17.10;100.00
113;BME280;45999;48.808;9.182;2023-05-23T05:19:31;98011.31;;;17.14;100.00
113;BME280;45999;48.808;9.182;2023-05-23T05:21:57;98011.03;;;17.11;100.00
113;BME280;45999;48.808;9.182;2023-05-23T05:24:24;98016.97;;;17.18;100.00
113;BME280;45999;48.808;9.182;2023-05-23T05:26:51;98020.97;;;17.15;100.00
113;BME280;45999;48.808;9.182;2023-05-23T05:29:18;98026.34;;;17.15;100.00
113;BME280;45999;48.808;9.182;2023-05-23T05:31:44;98025.31;;;17.21;100.00
113;BME280;45999;48.808;9.182;2023-05-23T05:34:11;98022.66;;;17.26;100.00
113;BME280;45999;48.808;9.182;2023-05-23T05:36:39;98028.78;;;17.17;100.00
113;BME280;45999;48.808;9.182;2023-05-23T05:39:10;98025.56;;;17.15;100.00
113;BME280;45999;48.808;9.182;2023-05-23T05:41:37;98024.22;;;17.17;100.00
113;BME280;45999;48.808;9.182;2023-05-23T05:44:03;98023.19;;;17.28;100.00
113;BME280;45999;48.808;9.182;2023-05-23T05:46:30;98033.91;;;17.23;100.00
113;BME280;45999;48.808;9.182;2023-05-23T05:48:56;98025.31;;;17.21;100.00
113;BME280;45999;48.808;9.182;2023-05-23T05:51:22;98022.94;;;17.30;100.00
113;BME280;45999;48.808;9.182;2023-05-23T05:53:49;98023.84;;;17.45;100.00
113;BME280;45999;48.808;9.182;2023-05-23T05:56:15;98021.94;;;17.41;100.00
113;BME280;45999;48.808;9.182;2023-05-23T05:58:41;98035.84;;;17.28;100.00
113;BME280;45999;48.808;9.182;2023-05-23T06:01:08;98035.00;;;17.27;100.00
113;BME280;45999;48.808;9.182;2023-05-23T06:03:34;98036.09;;;17.26;100.00
113;BME280;45999;48.808;9.182;2023-05-23T06:06:01;98035.84;;;17.33;100.00
113;BME280;45999;48.808;9.182;2023-05-23T06:08:27;98036.38;;;17.35;100.00
113;BME280;45999;48.808;9.182;2023-05-23T06:10:53;98045.00;;;17.37;100.00
113;BME280;45999;48.808;9.182;2023-05-23T06:13:20;98037.22;;;17.35;100.00
113;BME280;45999;48.808;9.182;2023-05-23T06:15:47;98038.22;;;17.29;100.00
113;BME280;45999;48.808;9.182;2023-05-23T06:18:13;98040.91;;;17.29;100.00
113;BME280;45999;48.808;9.182;2023-05-23T06:20:39;98037.00;;;17.42;100.00
113;BME280;45999;48.808;9.182;2023-05-23T06:23:06;98045.84;;;17.42;100.00
113;BME280;45999;48.808;9.182;2023-05-23T06:25:33;98046.03;;;17.26;100.00
113;BME280;45999;48.808;9.182;2023-05-23T06:27:59;98046.03;;;17.31;100.00
113;BME280;45999;48.808;9.182;2023-05-23T06:30:25;98041.75;;;17.30;100.00
113;BME280;45999;48.808;9.182;2023-05-23T06:32:53;98046.03;;;17.31;100.00
113;BME280;45999;48.808;9.182;2023-05-23T06:35:19;98051.97;;;17.33;100.00
113;BME280;45999;48.808;9.182;2023-05-23T06:37:46;98053.34;;;17.35;100.00
113;BME280;45999;48.808;9.182;2023-05-23T06:40:12;98056.06;;;17.40;100.00
113;BME280;45999;48.808;9.182;2023-05-23T06:42:39;98064.97;;;17.41;100.00
113;BME280;45999;48.808;9.182;2023-05-23T06:45:06;98072.69;;;17.37;100.00
113;BME280;45999;48.808;9.182;2023-05-23T06:47:32;98067.03;;;17.34;100.00
113;BME280;45999;48.808;9.182;2023-05-23T06:49:59;98069.97;;;17.32;100.00
113;BME280;45999;48.808;9.182;2023-05-23T06:52:25;98074.69;;;17.15;100.00
113;BME280;45999;48.808;9.182;2023-05-23T06:54:52;98081.63;;;17.06;100.00
113;BME280;45999;48.808;9.182;2023-05-23T06:57:18;98080.63;;;17.12;100.00
113;BME280;45999;48.808;9.182;2023-05-23T06:59:44;98080.03;;;17.05;100.00
113;BME280;45999;48.808;9.182;2023-05-23T07:02:11;98086.47;;;17.04;100.00
113;BME280;45999;48.808;9.182;2023-05-23T07:04:37;98082.41;;;16.97;100.00
113;BME280;45999;48.808;9.182;2023-05-23T07:07:04;98086.66;;;16.93;100.00
113;BME280;45999;48.808;9.182;2023-05-23T07:09:30;98088.53;;;16.92;100.00
113;BME280;45999;48.808;9.182;2023-05-23T07:11:56;98094.72;;;16.93;100.00
113;BME280;45999;48.808;9.182;2023-05-23T07:14:23;98105.72;;;16.91;100.00
113;BME280;45999;48.808;9.182;2023-05-23T07:16:49;98090.38;;;16.87;100.00
113;BME280;45999;48.808;9.182;2023-05-23T07:19:16;98112.38;;;16.84;100.00
113;BME280;45999;48.808;9.182;2023-05-23T07:21:42;98108.97;;;16.93;100.00
113;BME280;45999;48.808;9.182;2023-05-23T07:24:09;98100.34;;;16.91;100.00
113;BME280;45999;48.808;9.182;2023-05-23T07:26:35;98103.50;;;16.83;100.00
113;BME280;45999;48.808;9.182;2023-05-23T07:29:01;98112.13;;;16.85;100.00
113;BME280;45999;48.808;9.182;2023-05-23T07:31:28;98099.22;;;16.87;100.00
113;BME280;45999;48.808;9.182;2023-05-23T07:33:54;98104.63;;;16.92;100.00
113;BME280;45999;48.808;9.182;2023-05-23T07:36:20;98107.28;;;16.87;100.00
113;BME280;45999;48.808;9.182;2023-05-23T07:38:47;98117.53;;;16.90;100.00
113;BME280;45999;48.808;9.182;2023-05-23T07:41:14;98112.63;;;16.82;100.00
113;BME280;45999;48.808;9.182;2023-05-23T07:43:40;98117.50;;;16.85;100.00
113;BME280;45999;48.808;9.182;2023-05-23T07:46:07;98120.19;;;16.85;100.00
113;BME280;45999;48.808;9.182;2023-05-23T07:48:33;98114.78;;;16.80;100.00
113;BME280;45999;48.808;9.182;2023-05-23T07:51:00;98113.19;;;16.84;100.00
113;BME280;45999;48.808;9.182;2023-05-23T07:53:26;98112.81;;;17.07;100.00
113;BME280;45999;48.808;9.182;2023-05-23T07:55:52;98129.03;;;17.22;100.00
113;BME280;45999;48.808;9.182;2023-05-23T07:58:19;98128.34;;;17.00;100.00
113;BME280;45999;48.808;9.182;2023-05-23T08:00:45;98123.00;;;17.05;100.00
113;BME280;45999;48.808;9.182;2023-05-23T08:03:13;98124.97;;;16.83;100.00
113;BME280;45999;48.808;9.182;2023-05-23T08:05:39;98128.19;;;16.80;100.00
113;BME280;45999;48.808;9.182;2023-05-23T08:08:05;98132.25;;;16.83;100.00
113;BME280;45999;48.808;9.182;2023-05-23T08:10:32;98131.94;;;16.79;100.00
113;BME280;45999;48.808;9.182;2023-05-23T08:12:58;98139.00;;;16.90;100.00
113;BME280;45999;48.808;9.182;2023-05-23T08:15:28;98129.00;;;16.81;100.00
113;BME280;45999;48.808;9.182;2023-05-23T08:17:54;98147.22;;;16.74;100.00
113;BME280;45999;48.808;9.182;2023-05-23T08:20:21;98142.09;;;16.72;100.00
113;BME280;45999;48.808;9.182;2023-05-23T08:22:54;98142.53;;;16.64;100.00
113;BME280;45999;48.808;9.182;2023-05-23T08:25:22;98150.09;;;16.67;100.00
113;BME280;45999;48.808;9.182;2023-05-23T08:27:49;98152.16;;;16.60;100.00
113;BME280;45999;48.808;9.182;2023-05-23T08:30:15;98150.31;;;16.61;100.00
113;BME280;45999;48.808;9.182;2023-05-23T08:32:41;98145.72;;;16.61;100.00
113;BME280;45999;48.808;9.182;2023-05-23T08:35:08;98154.81;;;16.55;100.00
113;BME280;45999;48.808;9.182;2023-05-23T08:37:34;98164.53;;;16.61;100.00
113;BME280;45999;48.808;9.182;2023-05-23T08:40:00;98158.16;;;16.67;100.00
113;BME280;45999;48.808;9.182;2023-05-23T08:42:28;98161.94;;;16.71;100.00
113;BME280;45999;48.808;9.182;2023-05-23T08:44:54;98169.88;;;16.88;100.00
113;BME280;45999;48.808;9.182;2023-05-23T08:47:20;98169.47;;;16.74;100.00
113;BME280;45999;48.808;9.182;2023-05-23T08:49:47;98178.25;;;16.96;100.00
113;BME280;45999;48.808;9.182;2023-05-23T08:52:16;98176.03;;;16.88;100.00
113;BME280;45999;48.808;9.182;2023-05-23T08:54:43;98172.53;;;16.83;100.00
113;BME280;45999;48.808;9.182;2023-05-23T08:57:10;98174.34;;;16.77;100.00
113;BME280;45999;48.808;9.182;2023-05-23T08:59:37;98174.25;;;16.67;100.00
113;BME280;45999;48.808;9.182;2023-05-23T09:02:07;98185.38;;;16.81;100.00
113;BME280;45999;48.808;9.182;2023-05-23T09:04:35;98186.00;;;16.88;100.00
113;BME280;45999;48.808;9.182;2023-05-23T09:07:02;98179.34;;;16.95;100.00
113;BME280;45999;48.808;9.182;2023-05-23T09:09:29;98187.56;;;16.84;100.00
113;BME280;45999;48.808;9.182;2023-05-23T09:11:57;98188.94;;;16.86;100.00
113;BME280;45999;48.808;9.182;2023-05-23T09:14:24;98195.63;;;16.84;100.00
113;BME280;45999;48.808;9.182;2023-05-23T09:16:50;98185.47;;;16.91;100.00
113;BME280;45999;48.808;9.182;2023-05-23T09:19:17;98192.94;;;16.84;100.00
113;BME280;45999;48.808;9.182;2023-05-23T09:21:44;98193.38;;;16.76;100.00
113;BME280;45999;48.808;9.182;2023-05-23T09:24:11;98204.09;;;16.71;100.00
113;BME280;45999;48.808;9.182;2023-05-23T09:26:37;98196.38;;;16.79;100.00
113;BME280;45999;48.808;9.182;2023-05-23T09:29:05;98201.03;;;16.89;100.00
113;BME280;45999;48.808;9.182;2023-05-23T09:31:31;98200.31;;;16.98;100.00
113;BME280;45999;48.808;9.182;2023-05-23T09:33:58;98190.75;;;16.81;100.00
113;BME280;45999;48.808;9.182;2023-05-23T09:36:27;98193.22;;;16.87;100.00
113;BME280;45999;48.808;9.182;2023-05-23T09:38:54;98208.50;;;16.82;100.00
113;BME280;45999;48.808;9.182;2023-05-23T09:41:21;98195.91;;;16.87;100.00
113;BME280;45999;48.808;9.182;2023-05-23T09:43:52;98204.16;;;16.81;100.00
113;BME280;45999;48.808;9.182;2023-05-23T09:46:21;98210.25;;;16.98;100.00
113;BME280;45999;48.808;9.182;2023-05-23T09:48:48;98208.00;;;17.16;100.00
113;BME280;45999;48.808;9.182;2023-05-23T09:51:18;98217.94;;;17.21;100.00
113;BME280;45999;48.808;9.182;2023-05-23T09:53:46;98215.31;;;17.26;100.00
113;BME280;45999;48.808;9.182;2023-05-23T09:56:14;98202.28;;;17.13;100.00
113;BME280;45999;48.808;9.182;2023-05-23T09:58:49;98206.34;;;17.15;100.00
113;BME280;45999;48.808;9.182;2023-05-23T10:01:16;98205.81;;;17.13;100.00
113;BME280;45999;48.808;9.182;2023-05-23T10:03:50;98208.03;;;17.21;100.00
113;BME280;45999;48.808;9.182;2023-05-23T10:06:25;98207.78;;;17.23;100.00
113;BME280;45999;48.808;9.182;2023-05-23T10:08:58;98213.31;;;17.43;100.00
113;BME280;45999;48.808;9.182;2023-05-23T10:14:06;98212.50;;;17.89;96.73
113;BME280;45999;48.808;9.182;2023-05-23T10:17:06;98212.28;;;17.95;97.03
113;BME280;45999;48.808;9.182;2023-05-23T10:19:47;98210.50;;;18.21;98.20
113;BME280;45999;48.808;9.182;2023-05-23T10:22:16;98202.69;;;18.24;99.67
113;BME280;45999;48.808;9.182;2023-05-23T10:24:44;98208.19;;;18.44;93.47
113;BME280;45999;48.808;9.182;2023-05-23T10:27:11;98201.19;;;18.43;92.87
113;BME280;45999;48.808;9.182;2023-05-23T10:29:38;98214.16;;;18.61;93.05
113;BME280;45999;48.808;9.182;2023-05-23T10:32:06;98217.09;;;18.50;90.96
113;BME280;45999;48.808;9.182;2023-05-23T10:37:31;98208.44;;;18.38;92.80
113;BME280;45999;48.808;9.182;2023-05-23T10:40:23;98207.03;;;18.30;91.41
113;BME280;45999;48.808;9.182;2023-05-23T10:43:09;98211.13;;;18.33;91.70
113;BME280;45999;48.808;9.182;2023-05-23T10:45:42;98203.09;;;18.53;91.80
113;BME280;45999;48.808;9.182;2023-05-23T10:48:31;98205.97;;;18.31;92.12
113;BME280;45999;48.808;9.182;2023-05-23T10:51:08;98205.50;;;18.49;91.70
113;BME280;45999;48.808;9.182;2023-05-23T10:53:39;98200.44;;;18.73;95.61
113;BME280;45999;48.808;9.182;2023-05-23T10:56:07;98206.66;;;18.93;90.14
113;BME280;45999;48.808;9.182;2023-05-23T10:58:35;98200.47;;;18.78;90.98
113;BME280;45999;48.808;9.182;2023-05-23T11:01:05;98199.63;;;18.87;89.23
113;BME280;45999;48.808;9.182;2023-05-23T11:03:36;98206.94;;;18.82;91.95
113;BME280;45999;48.808;9.182;2023-05-23T11:06:04;98212.25;;;18.62;86.17
113;BME280;45999;48.808;9.182;2023-05-23T11:08:39;98211.50;;;18.86;85.10
113;BME280;45999;48.808;9.182;2023-05-23T11:11:07;98212.59;;;18.85;90.12
113;BME280;45999;48.808;9.182;2023-05-23T11:16:38;98213.94;;;18.83;81.68
113;BME280;45999;48.808;9.182;2023-05-23T11:24:19;98219.81;;;18.65;85.04
113;BME280;45999;48.808;9.182;2023-05-23T11:26:54;98221.19;;;18.72;82.56
113;BME280;45999;48.808;9.182;2023-05-23T11:29:24;98216.84;;;18.61;81.89
113;BME280;45999;48.808;9.182;2023-05-23T11:31:51;98225.22;;;18.75;84.97
113;BME280;45999;48.808;9.182;2023-05-23T11:34:17;98222.25;;;18.71;86.54
113;BME280;45999;48.808;9.182;2023-05-23T11:36:44;98224.38;;;18.54;87.42
113;BME280;45999;48.808;9.182;2023-05-23T11:39:12;98214.72;;;18.73;89.58
113;BME280;45999;48.808;9.182;2023-05-23T11:41:40;98218.53;;;19.12;87.26
113;BME280;45999;48.808;9.182;2023-05-23T11:44:10;98220.09;;;18.78;84.87
113;BME280;45999;48.808;9.182;2023-05-23T11:46:38;98218.50;;;18.77;86.73
113;BME280;45999;48.808;9.182;2023-05-23T11:49:09;98219.00;;;18.64;87.68
113;BME280;45999;48.808;9.182;2023-05-23T11:51:36;98213.66;;;18.89;88.43
113;BME280;45999;48.808;9.182;2023-05-23T11:54:02;98213.94;;;18.98;83.45
113;BME280;45999;48.808;9.182;2023-05-23T11:56:29;98224.44;;;18.84;84.45
113;BME280;45999;48.808;9.182;2023-05-23T11:58:56;98224.44;;;18.84;84.62
113;BME280;45999;48.808;9.182;2023-05-23T12:01:27;98219.06;;;19.04;85.23
113;BME280;45999;48.808;9.182;2023-05-23T12:03:55;98222.31;;;19.06;82.34
113;BME280;45999;48.808;9.182;2023-05-23T12:06:22;98215.53;;;19.04;80.19
113;BME280;45999;48.808;9.182;2023-05-23T12:08:50;98212.31;;;19.12;79.78
113;BME280;45999;48.808;9.182;2023-05-23T12:11:17;98221.50;;;18.96;80.19
113;BME280;45999;48.808;9.182;2023-05-23T12:13:43;98220.66;;;18.95;81.38
113;BME280;45999;48.808;9.182;2023-05-23T12:16:12;98213.66;;;19.04;80.58
113;BME280;45999;48.808;9.182;2023-05-23T12:18:41;98211.50;;;19.01;85.61
113;BME280;45999;48.808;9.182;2023-05-23T12:21:07;98211.25;;;19.03;82.05
113;BME280;45999;48.808;9.182;2023-05-23T12:23:34;98200.22;;;19.34;82.38
113;BME280;45999;48.808;9.182;2023-05-23T12:26:05;98199.13;;;19.45;81.07
113;BME280;45999;48.808;9.182;2023-05-23T12:28:39;98201.03;;;19.25;77.94
113;BME280;45999;48.808;9.182;2023-05-23T12:31:20;98194.00;;;19.19;82.51
113;BME280;45999;48.808;9.182;2023-05-23T12:33:47;98193.19;;;19.18;83.16
113;BME280;45999;48.808;9.182;2023-05-23T12:36:15;98195.88;;;19.08;82.19
113;BME280;45999;48.808;9.182;2023-05-23T12:38:46;98187.28;;;19.06;83.76
113;BME280;45999;48.808;9.182;2023-05-23T12:41:18;98189.72;;;19.23;82.03
113;BME280;45999;48.808;9.182;2023-05-23T12:43:55;98199.16;;;19.30;80.55
113;BME280;45999;48.808;9.182;2023-05-23T12:46:22;98189.41;;;19.49;81.14
113;BME280;45999;48.808;9.182;2023-05-23T12:48:49;98182.34;;;19.68;80.67
113;BME280;45999;48.808;9.182;2023-05-23T12:51:17;98179.72;;;19.28;81.17
113;BME280;45999;48.808;9.182;2023-05-23T12:53:44;98175.41;;;19.48;85.07
113;BME280;45999;48.808;9.182;2023-05-23T12:56:10;98191.06;;;19.35;79.89
113;BME280;45999;48.808;9.182;2023-05-23T12:58:36;98182.31;;;19.78;78.20
113;BME280;45999;48.808;9.182;2023-05-23T13:01:03;98179.84;;;19.97;80.69
113;BME280;45999;48.808;9.182;2023-05-23T13:03:30;98172.84;;;19.91;80.46
113;BME280;45999;48.808;9.182;2023-05-23T13:05:57;98188.16;;;20.06;77.58
113;BME280;45999;48.808;9.182;2023-05-23T13:08:25;98170.88;;;20.17;77.66
113;BME280;45999;48.808;9.182;2023-05-23T13:10:54;98173.16;;;19.85;75.74
113;BME280;45999;48.808;9.182;2023-05-23T13:13:22;98170.81;;;19.43;77.56
113;BME280;45999;48.808;9.182;2023-05-23T13:15:48;98174.34;;;19.33;79.91
113;BME280;45999;48.808;9.182;2023-05-23T13:18:15;98177.59;;;19.25;78.08
113;BME280;45999;48.808;9.182;2023-05-23T13:20:42;98178.09;;;19.17;79.46
113;BME280;45999;48.808;9.182;2023-05-23T13:23:08;98178.91;;;19.13;79.57
113;BME280;45999;48.808;9.182;2023-05-23T13:25:35;98180.78;;;19.17;78.69
113;BME280;45999;48.808;9.182;2023-05-23T13:28:02;98172.44;;;18.89;79.52
113;BME280;45999;48.808;9.182;2023-05-23T13:30:29;98174.88;;;18.90;84.02
113;BME280;45999;48.808;9.182;2023-05-23T13:32:55;98171.91;;;18.87;83.13
113;BME280;45999;48.808;9.182;2023-05-23T13:35:21;98177.25;;;18.72;82.78